Date,TemperatureHighF,TemperatureAvgF,TemperatureLowF,DewpointHighF,DewpointAvgF,DewpointLowF,HumidityHigh,HumidityAvg,HumidityLow,PressureMaxIn,PressureMinIn,WindSpeedMaxMPH,WindSpeedAvgMPH,GustSpeedMaxMPH,PrecipitationSumIn
2013-1-1,31,24,15,26,14,8,80,65,50,30.11,29.98,7,2,18,29.35
2013-1-2,25,19,12,16,12,8,83,73,66,30.20,30.06,5,2,13,0.00
2013-1-3,29,22,13,23,14,4,79,69,61,30.17,30.08,9,4,21,0.00
2013-1-4,29,25,21,20,16,12,77,69,59,30.18,30.07,13,8,28,0.00
2013-1-5,34,28,20,29,22,16,87,76,63,30.27,30.03,8,4,17,0.00
2013-1-6,36,34,31,31,28,25,85,79,70,30.23,29.89,9,5,20,0.02
2013-1-7,36,32,28,26,24,21,80,71,62,30.37,30.14,10,4,25,0.00
2013-1-8,39,31,25,27,24,20,85,73,60,30.24,30.14,7,2,16,0.01
2013-1-9,48,40,29,33,29,23,85,65,47,30.43,30.02,13,6,29,0.00
2013-1-10,42,33,24,32,27,21,90,79,59,30.54,30.11,3,0,13,0.02
2013-1-11,60,47,36,52,43,32,94,85,69,30.10,29.73,10,3,25,0.50
2013-1-12,60,53,49,52,48,44,92,82,70,29.90,29.74,8,3,19,0.22
2013-1-13,52,41,33,51,39,30,94,92,89,30.00,29.64,8,3,20,1.56
2013-1-14,32,26,20,28,18,16,87,72,62,30.41,30.01,10,3,22,0.00
2013-1-15,32,24,16,20,16,13,89,74,52,30.41,30.10,3,0,10,0.00
2013-1-16,39,30,22,26,20,17,87,69,42,30.10,29.82,10,4,26,0.00
2013-1-17,42,33,20,29,22,7,85,64,45,30.29,29.95,9,4,22,0.00
2013-1-18,37,29,20,23,17,8,74,60,52,30.42,29.99,12,5,28,0.00
2013-1-19,50,43,36,34,28,23,66,55,46,29.98,29.59,14,10,31,0.00
2013-1-20,44,26,19,34,11,5,67,54,44,30.17,29.58,17,9,38,0.00
2013-1-21,20,17,10,9,5,-1,74,59,45,30.13,29.95,13,7,26,0.00
2013-1-22,12,7,1,4,-3,-8,77,65,57,30.31,30.10,9,4,22,0.00
2013-1-23,18,13,6,12,2,-4,81,63,45,30.29,30.05,8,3,19,0.00
2013-1-24,25,16,9,12,5,0,82,63,37,30.57,30.07,8,3,17,0.01
2013-1-25,22,19,17,18,12,6,85,72,61,30.48,29.99,3,1,8,0.00
2013-1-26,28,24,19,20,16,12,85,73,54,30.41,30.03,7,2,16,0.00
2013-1-27,32,24,16,26,17,11,82,73,59,30.46,30.10,4,1,11,0.01
2013-1-28,50,43,32,47,40,26,93,91,77,30.10,29.83,10,4,21,17.29
2013-1-29,59,50,37,54,47,35,95,90,80,29.96,29.42,10,3,22,0.27
2013-1-30,64,52,34,56,48,25,93,85,69,29.41,29.08,15,7,34,0.58
2013-1-31,34,24,17,25,14,6,82,65,50,29.89,29.26,16,11,37,0.00
2013-2-1,19,15,12,9,5,1,74,64,52,30.29,29.89,13,8,27,0.00
2013-2-2,24,19,14,19,13,5,85,77,64,30.23,29.92,7,4,17,0.00
2013-2-3,23,16,7,15,9,2,82,74,62,30.00,29.86,9,3,20,0.00
2013-2-4,26,22,18,20,17,12,85,80,73,30.01,29.84,6,1,18,0.00
2013-2-5,29,24,20,25,19,16,88,80,64,29.92,29.80,6,2,14,10.79
2013-2-6,38,27,15,25,15,9,85,62,43,30.28,29.92,7,1,18,0.09
2013-2-7,42,32,25,30,23,16,89,71,56,30.23,29.77,7,2,14,0.05
2013-2-8,33,28,20,31,24,14,92,82,69,30.31,29.70,10,3,26,0.14
2013-2-9,35,24,13,20,16,9,86,73,52,30.43,30.26,2,0,8,0.01
2013-2-10,46,34,21,40,26,17,87,71,52,30.25,29.65,7,1,18,0.03
2013-2-11,47,40,33,43,30,23,88,70,60,29.87,29.54,18,10,42,0.00
2013-2-12,36,33,30,25,23,22,72,66,58,30.03,29.88,9,5,25,0.00
2013-2-13,40,32,27,25,22,20,81,69,52,29.89,29.70,4,1,12,0.00
2013-2-14,43,36,29,35,29,24,85,76,59,29.83,29.66,13,6,29,0.00
2013-2-15,35,30,25,25,18,12,75,61,46,30.10,29.83,9,4,21,0.00
2013-2-16,28,22,17,19,14,8,79,69,55,30.08,29.95,9,3,20,0.00
2013-2-17,27,20,12,11,8,4,81,61,38,30.19,30.03,8,2,20,0.00
2013-2-18,49,35,19,34,21,8,65,56,45,30.19,29.57,7,3,19,0.00
2013-2-19,47,28,18,40,21,8,87,73,57,29.95,29.40,15,10,35,0.18
2013-2-20,23,21,18,14,11,8,79,66,54,30.22,29.96,11,6,26,0.00
2013-2-21,26,23,22,17,14,13,74,69,62,30.35,30.22,5,2,14,0.00
2013-2-22,35,29,23,33,25,16,93,87,74,30.22,29.84,6,3,18,0.08
2013-2-23,34,31,28,31,22,18,88,69,58,29.90,29.85,11,5,20,0.05
2013-2-24,38,30,24,25,22,17,81,70,57,30.11,29.88,9,4,22,0.05
2013-2-25,42,31,20,29,23,17,91,74,51,30.19,30.03,4,1,12,0.10
2013-2-26,34,32,30,33,28,23,94,84,73,30.05,29.41,9,4,27,1.06
2013-2-27,36,34,32,35,33,31,94,94,93,29.56,29.38,7,3,14,0.56
2013-2-28,39,34,32,34,30,26,93,84,69,29.90,29.52,9,4,20,0.16
2013-3-1,32,29,27,27,21,18,84,72,65,30.06,29.90,7,4,19,0.00
2013-3-2,31,27,25,22,19,16,79,71,63,30.04,30.00,6,4,17,0.00
2013-3-3,33,26,20,17,15,12,77,64,45,30.03,29.97,6,3,17,0.00
2013-3-4,41,28,16,20,16,12,86,65,38,30.12,30.03,5,1,11,0.00
2013-3-5,31,28,26,24,22,20,84,77,69,30.07,29.74,9,4,28,0.00
2013-3-6,41,34,28,29,26,22,82,71,59,30.17,29.74,9,3,21,0.00
2013-3-7,40,35,30,30,26,19,81,69,56,30.34,30.15,7,2,16,0.00
2013-3-8,47,34,22,27,22,18,86,65,42,30.45,30.34,3,1,12,0.00
2013-3-9,49,36,26,32,28,22,88,71,46,30.37,29.98,4,1,12,0.00
2013-3-10,66,52,35,43,36,31,85,58,34,29.98,29.73,10,2,22,0.01
2013-3-11,57,50,38,48,43,31,88,75,58,29.76,29.42,13,7,33,0.27
2013-3-12,38,35,32,32,27,23,81,73,62,29.90,29.67,10,6,25,0.00
2013-3-13,33,30,27,26,20,14,85,66,52,30.19,29.85,11,7,26,0.00
2013-3-14,43,33,24,22,18,14,72,55,39,30.24,30.07,7,3,18,0.00
2013-3-15,45,38,32,37,30,19,90,74,58,30.06,29.80,8,3,19,0.10
2013-3-16,36,32,30,33,28,24,92,87,75,30.01,29.67,7,3,19,0.04
2013-3-17,33,29,25,24,19,14,74,65,48,30.21,30.02,9,3,25,0.03
2013-3-18,38,33,28,37,29,20,94,84,69,30.12,29.51,12,4,26,0.20
2013-3-19,36,29,24,31,17,12,84,61,46,29.93,29.62,17,10,34,0.00
2013-3-20,31,26,19,18,13,8,73,57,44,29.93,29.87,11,5,25,0.00
2013-3-21,33,25,16,21,16,10,78,69,55,29.93,29.86,9,5,24,0.00
2013-3-22,44,33,27,22,19,16,70,56,38,29.98,29.90,7,4,20,0.00
2013-3-23,43,32,22,25,22,18,85,66,44,30.05,29.98,7,1,14,0.00
2013-3-24,36,31,26,27,24,21,87,74,58,29.98,29.53,10,4,22,0.00
2013-3-25,37,34,30,33,28,23,89,79,67,29.85,29.46,10,5,24,0.18
2013-3-26,45,38,34,32,28,26,78,69,51,30.08,29.85,7,4,17,0.04
2013-3-27,47,39,32,30,25,22,81,59,38,30.17,30.08,10,5,26,0.00
2013-3-28,54,42,30,26,24,21,69,50,32,30.22,30.16,8,3,20,0.00
2013-3-29,55,43,28,25,21,16,73,45,23,30.24,30.14,6,2,18,0.00
2013-3-30,58,45,28,30,23,17,74,46,23,30.18,29.88,7,2,19,0.00
2013-3-31,61,50,43,43,33,28,83,55,31,29.87,29.57,11,3,28,0.00
2013-4-1,46,36,28,31,16,8,74,46,26,30.08,29.65,10,6,24,0.00
2013-4-2,44,33,25,18,12,8,70,44,26,30.21,30.07,10,4,22,0.00
2013-4-3,47,34,24,19,12,8,64,42,21,30.37,30.20,9,2,21,0.00
2013-4-4,58,41,27,18,13,7,57,34,14,30.33,29.90,6,1,17,0.00
2013-4-5,55,45,37,33,23,13,78,45,19,30.15,29.87,7,2,18,0.00
2013-4-6,57,46,35,25,19,10,65,37,23,30.21,29.74,6,2,18,0.00
2013-4-7,63,58,48,44,37,21,63,47,25,29.95,29.59,14,7,33,0.00
2013-4-8,72,53,41,55,42,33,90,67,48,29.98,29.65,13,3,29,0.08
2013-4-9,56,49,43,45,42,39,88,77,63,30.01,29.80,5,1,13,0.01
2013-4-10,49,45,42,46,43,40,94,91,86,29.91,29.77,6,2,20,0.47
2013-4-11,42,39,38,40,37,35,93,91,88,29.92,29.55,10,6,28,1.07
2013-4-12,43,40,38,39,35,31,94,82,65,29.76,29.45,12,6,25,0.31
2013-4-13,43,41,38,36,31,28,83,68,56,29.95,29.76,12,6,31,0.01
2013-4-14,49,42,36,37,33,26,85,71,54,30.06,29.89,5,1,18,0.00
2013-4-15,70,57,38,52,45,35,92,68,48,29.91,29.81,9,3,29,0.00
2013-4-16,63,56,50,52,47,39,92,75,48,30.13,29.80,6,2,18,0.42
2013-4-17,53,49,44,42,35,30,74,59,45,30.25,30.00,7,4,21,0.01
2013-4-18,80,61,46,62,53,39,92,77,49,29.99,29.50,17,5,37,0.42
2013-4-19,62,46,38,58,39,28,93,76,57,29.76,29.28,17,9,34,0.24
2013-4-20,45,37,32,29,23,18,85,58,38,30.40,29.76,12,6,31,0.01
2013-4-21,47,37,25,30,25,20,82,64,49,30.57,30.40,6,2,19,0.00
2013-4-22,60,48,32,38,31,24,89,58,26,30.41,30.13,6,1,17,0.00
2013-4-23,73,57,41,55,42,31,92,61,30,30.11,29.73,10,2,26,0.24
2013-4-24,58,44,36,54,39,26,92,84,61,30.12,29.63,7,4,20,0.62
2013-4-25,53,43,33,40,31,26,82,64,38,30.30,30.09,11,4,33,0.05
2013-4-26,61,47,30,37,31,27,91,58,32,30.41,30.29,4,1,14,0.00
2013-4-27,69,53,37,40,36,32,90,55,27,30.30,30.02,6,1,16,0.00
2013-4-28,58,54,50,56,49,39,93,85,61,30.02,29.76,2,0,8,0.33
2013-4-29,72,61,54,56,53,51,94,77,50,29.87,29.76,4,1,12,0.01
2013-4-30,76,65,53,55,53,50,89,66,44,29.99,29.87,6,1,14,0.00
2013-5-1,84,68,54,59,54,50,87,63,38,30.15,29.98,4,1,13,0.00
2013-5-2,80,65,52,54,50,44,89,61,35,30.17,30.05,5,1,16,0.00
2013-5-3,80,66,56,56,49,42,84,57,33,30.05,29.95,5,1,16,0.00
2013-5-4,68,62,56,49,44,34,71,51,29,30.03,29.97,7,1,19,0.00
2013-5-5,70,61,53,47,44,39,78,55,34,30.02,29.93,5,2,17,0.00
2013-5-6,69,60,49,48,46,43,85,60,43,29.97,29.91,5,1,14,0.00
2013-5-7,73,62,48,54,49,43,85,65,49,29.98,29.91,4,1,18,0.00
2013-5-8,80,66,54,52,49,44,83,56,33,29.94,29.85,3,0,16,0.00
2013-5-9,83,70,54,54,50,44,88,54,27,29.90,29.82,4,0,11,0.00
2013-5-10,73,64,46,60,55,40,92,75,53,29.84,29.65,8,3,21,0.23
2013-5-11,60,49,41,46,41,32,84,74,56,29.88,29.72,8,3,24,0.00
2013-5-12,51,43,38,33,28,24,78,57,38,30.06,29.86,10,4,27,0.00
2013-5-13,59,46,30,29,23,18,81,46,21,30.13,30.05,6,1,19,0.00
2013-5-14,81,62,44,58,41,28,71,48,32,30.06,29.64,8,2,25,0.00
2013-5-15,88,76,66,59,51,41,74,45,20,29.70,29.54,10,4,27,0.00
2013-5-16,86,71,54,52,43,38,69,41,20,29.90,29.69,4,1,17,0.00
2013-5-17,69,61,53,48,44,37,73,53,38,30.06,29.91,5,2,17,0.00
2013-5-18,74,63,56,52,48,45,78,60,42,30.07,29.96,4,1,16,0.00
2013-5-19,85,71,56,65,58,49,86,65,45,29.96,29.82,2,0,13,0.00
2013-5-20,92,79,65,68,63,60,88,62,35,29.85,29.71,9,2,26,0.00
2013-5-21,88,80,72,65,60,55,77,54,34,29.75,29.63,10,3,26,0.00
2013-5-22,82,72,64,64,61,56,89,68,42,29.69,29.57,9,2,27,0.05
2013-5-23,69,58,45,61,53,40,90,83,64,30.08,29.64,7,3,22,0.10
2013-5-24,61,50,41,40,36,32,90,63,37,30.29,30.08,6,2,19,0.00
2013-5-25,68,54,38,43,37,30,91,58,24,30.34,30.20,3,0,12,0.00
2013-5-26,70,58,39,40,34,27,87,46,20,30.29,30.15,3,0,10,0.00
2013-5-27,58,54,52,53,44,34,93,72,42,30.19,29.92,2,0,12,0.65
2013-5-28,80,67,55,71,61,53,95,83,63,29.92,29.76,10,2,25,0.93
2013-5-29,87,78,71,66,62,60,70,59,44,29.92,29.76,10,4,26,0.00
2013-5-30,90,77,69,71,64,59,92,68,40,29.99,29.88,7,1,22,0.24
2013-5-31,83,74,68,68,65,63,93,76,54,29.92,29.80,11,3,25,0.01
2013-6-1,80,71,64,66,63,60,93,77,54,29.84,29.63,8,2,22,0.44
2013-6-2,73,67,57,66,58,46,91,73,54,29.91,29.61,8,4,24,0.25
2013-6-3,71,60,48,46,40,32,73,49,27,30.02,29.90,4,1,12,0.00
2013-6-4,72,61,49,50,46,43,83,59,40,30.13,30.02,4,1,12,0.00
2013-6-5,72,63,52,52,47,42,77,57,34,30.09,29.90,4,1,13,0.00
2013-6-6,70,63,57,55,49,43,74,62,55,29.90,29.77,4,2,16,0.00
2013-6-7,63,58,53,52,50,48,87,76,66,29.84,29.78,2,0,11,0.00
2013-6-8,75,65,57,56,53,51,83,66,43,29.99,29.83,2,0,11,0.00
2013-6-9,75,67,59,63,58,52,89,72,61,30.02,29.85,4,1,18,0.13
2013-6-10,74,67,65,68,64,62,94,91,78,29.86,29.65,5,0,16,0.54
2013-6-11,84,74,65,65,63,62,93,72,48,29.82,29.69,5,1,16,0.00
2013-6-12,84,73,65,68,64,62,91,75,52,29.83,29.55,3,0,14,0.01
2013-6-13,81,71,61,65,59,52,94,70,38,29.83,29.43,8,2,22,1.13
2013-6-14,80,70,60,59,56,50,85,62,38,29.99,29.83,4,1,14,0.00
2013-6-15,81,69,58,63,57,53,85,68,38,30.03,29.86,7,1,18,0.00
2013-6-16,84,74,66,66,63,59,91,69,45,29.85,29.75,7,3,19,0.35
2013-6-17,88,76,61,68,60,54,90,62,33,29.84,29.76,4,1,16,0.00
2013-6-18,75,68,62,62,57,47,86,68,51,29.98,29.79,5,2,17,0.00
2013-6-19,76,65,50,55,47,42,75,55,34,30.09,29.98,4,1,12,0.00
2013-6-20,85,70,53,58,52,46,86,56,26,30.14,30.07,3,0,14,0.00
2013-6-21,89,77,65,62,56,51,77,51,28,30.14,29.98,4,1,16,0.00
2013-6-22,92,78,70,72,66,56,91,68,46,30.02,29.89,7,2,24,0.48
2013-6-23,91,79,69,69,67,63,91,70,40,30.02,29.89,9,2,28,0.42
2013-6-24,88,78,68,69,67,64,91,72,51,30.01,29.86,6,2,16,0.05
2013-6-25,90,78,69,73,68,64,91,73,49,29.93,29.72,9,2,25,0.45
2013-6-26,86,74,66,71,67,64,94,82,53,29.85,29.65,6,1,20,0.72
2013-6-27,84,74,67,71,69,65,94,84,58,29.68,29.57,4,0,13,0.26
2013-6-28,82,69,63,67,63,58,94,83,50,29.56,29.45,8,1,18,0.19
2013-6-29,78,68,60,65,62,58,94,83,59,29.64,29.47,4,0,10,0.10
2013-6-30,78,69,63,64,60,58,91,75,55,29.84,29.64,5,1,15,0.11
2013-7-1,69,63,61,60,56,50,92,79,64,29.96,29.83,6,2,19,0.73
2013-7-2,72,66,61,64,61,57,91,85,74,29.98,29.92,3,1,14,0.02
2013-7-3,84,74,66,67,65,63,93,76,50,30.02,29.94,3,0,14,0.00
2013-7-4,84,75,70,68,66,64,88,74,54,30.06,29.99,2,0,11,0.00
2013-7-5,85,76,69,70,67,65,92,76,53,30.04,29.97,2,0,8,0.08
2013-7-6,81,74,70,72,68,66,94,83,65,30.04,29.92,2,0,8,1.25
2013-7-7,80,72,67,70,67,64,94,85,64,29.98,29.91,4,1,13,0.19
2013-7-8,85,73,67,75,68,64,93,86,67,29.97,29.91,3,1,12,0.65
2013-7-9,90,76,71,75,71,67,94,86,59,29.92,29.82,7,1,21,0.14
2013-7-10,88,77,68,76,70,61,92,79,53,29.85,29.69,9,2,19,0.10
2013-7-11,83,72,64,61,57,53,79,60,38,29.97,29.85,6,1,13,0.00
2013-7-12,82,70,58,64,59,55,89,69,44,30.07,29.98,3,1,14,0.00
2013-7-13,83,74,64,68,64,59,91,72,53,30.12,30.04,5,1,14,0.00
2013-7-14,89,79,68,72,69,66,93,73,53,30.16,30.11,4,1,13,0.00
2013-7-15,93,83,74,75,72,69,88,69,48,30.21,30.13,3,0,12,0.00
2013-7-16,92,85,79,75,73,71,85,69,51,30.23,30.15,2,0,11,0.00
2013-7-17,94,85,76,78,72,69,81,68,50,30.21,30.07,3,1,11,0.02
2013-7-18,95,85,75,75,73,71,87,67,48,30.08,29.88,5,1,14,0.00
2013-7-19,94,86,78,74,72,69,81,64,46,29.90,29.67,10,4,27,0.00
2013-7-20,88,79,70,73,69,62,94,74,43,29.83,29.66,9,1,27,27.48
2013-7-21,86,76,67,66,63,61,86,66,47,29.91,29.82,2,0,12,24.61
2013-7-22,82,74,69,70,66,60,88,76,60,29.87,29.69,3,0,8,16.64
2013-7-23,86,74,65,69,65,54,92,77,48,29.77,29.60,9,2,20,0.01
2013-7-24,75,65,54,54,52,48,86,63,44,29.97,29.78,6,1,18,0.00
2013-7-25,79,67,53,57,53,49,85,63,42,30.04,29.97,2,0,8,0.00
2013-7-26,80,69,56,60,56,53,92,65,43,30.03,29.83,2,0,16,0.00
2013-7-27,76,68,60,67,61,52,91,79,64,29.83,29.66,5,1,16,0.48
2013-7-28,68,60,52,54,50,49,90,71,54,29.94,29.79,9,2,26,0.00
2013-7-29,75,64,55,57,53,49,84,71,50,30.11,29.94,5,1,18,0.00
2013-7-30,82,68,52,63,57,50,93,71,43,30.16,30.05,2,0,11,0.00
2013-7-31,79,72,67,66,63,60,92,75,60,30.05,29.82,4,0,13,0.37
2013-8-1,81,71,63,66,62,55,94,75,44,29.86,29.80,4,0,14,0.04
2013-8-2,73,66,56,67,58,52,89,77,61,29.89,29.78,7,1,18,0.06
2013-8-3,83,72,62,64,58,50,93,64,35,29.95,29.84,4,1,20,0.00
2013-8-4,77,67,56,56,54,51,85,64,42,30.09,29.95,5,1,14,0.00
2013-8-5,76,66,56,58,54,51,88,67,45,30.05,29.89,1,0,8,0.00
2013-8-6,82,72,66,64,61,57,82,69,52,29.90,29.82,4,0,16,0.00
2013-8-7,84,74,68,71,67,63,91,80,59,29.84,29.76,3,0,13,28.08
2013-8-8,76,73,69,70,66,62,89,79,69,29.92,29.81,4,1,12,0.00
2013-8-9,83,73,64,62,57,52,76,59,38,29.94,29.86,3,1,12,0.00
2013-8-10,78,71,65,64,61,60,82,71,57,30.04,29.93,3,0,11,0.00
2013-8-11,84,71,57,62,58,54,93,67,36,30.06,29.96,3,0,10,0.00
2013-8-12,81,71,67,70,64,59,91,78,61,29.99,29.76,3,0,8,0.41
2013-8-13,72,65,58,65,54,47,94,73,45,29.98,29.75,7,2,21,0.01
2013-8-14,75,61,50,51,48,44,84,63,40,30.10,29.99,5,1,13,0.00
2013-8-15,78,63,48,54,50,46,93,67,35,30.12,30.03,3,0,10,0.00
2013-8-16,82,67,54,55,52,47,89,61,31,30.12,30.06,2,0,10,0.00
2013-8-17,80,67,53,62,55,50,92,68,39,30.18,30.11,3,1,13,0.00
2013-8-18,83,71,59,64,57,51,94,67,34,30.14,30.04,3,0,11,0.00
2013-8-19,85,72,58,61,58,55,92,65,38,30.06,29.96,3,0,12,0.00
2013-8-20,88,75,61,65,62,58,91,66,40,30.08,29.99,3,0,12,0.00
2013-8-21,88,77,66,68,65,61,83,67,45,30.07,29.92,3,1,14,0.00
2013-8-22,84,75,69,68,66,63,92,76,56,29.97,29.89,3,1,14,0.18
2013-8-23,84,73,62,66,59,51,93,66,34,30.11,29.97,4,1,11,0.02
2013-8-24,83,71,58,64,57,49,93,65,34,30.23,30.11,4,0,13,0.00
2013-8-25,88,74,57,62,59,54,91,62,37,30.23,30.09,5,1,17,0.00
2013-8-26,90,78,68,70,64,60,80,62,49,30.11,29.90,6,2,18,0.02
2013-8-27,86,79,72,75,71,68,92,78,65,29.93,29.78,6,1,16,0.53
2013-8-28,86,78,73,74,71,69,91,80,64,29.91,29.71,8,1,22,0.48
2013-8-29,88,76,67,70,66,62,93,75,46,29.99,29.91,3,0,10,0.01
2013-8-30,88,77,65,70,66,62,94,72,47,29.92,29.67,7,1,18,0.00
2013-8-31,86,75,67,72,69,65,94,81,56,29.75,29.63,7,0,21,2.37
2013-9-1,83,76,72,70,69,68,91,79,64,29.74,29.65,3,0,11,1.14
2013-9-2,81,73,62,68,63,52,93,73,45,29.84,29.65,5,2,20,0.03
2013-9-3,77,65,59,56,53,49,84,65,46,29.96,29.84,5,1,18,0.00
2013-9-4,84,68,54,58,55,52,93,67,34,30.04,29.94,6,1,17,0.00
2013-9-5,75,66,59,59,52,39,89,63,30,30.18,30.00,4,1,13,0.00
2013-9-6,79,64,49,56,50,44,93,66,30,30.21,30.01,3,0,8,0.00
2013-9-7,84,69,57,68,58,47,82,67,49,30.01,29.83,4,1,14,0.00
2013-9-8,76,70,63,66,62,57,86,75,54,29.98,29.84,6,1,16,0.00
2013-9-9,85,68,58,72,62,50,92,82,63,29.99,29.83,1,0,8,0.02
2013-9-10,98,85,75,72,68,61,86,60,31,29.94,29.83,5,2,14,0.00
2013-9-11,96,81,72,71,68,63,85,65,35,29.98,29.82,5,2,21,0.02
2013-9-12,83,72,60,69,62,49,93,74,39,29.88,29.75,8,1,17,0.17
2013-9-13,65,56,46,49,45,40,81,66,47,30.08,29.88,5,2,17,0.00
2013-9-14,71,54,40,49,41,37,92,66,30,30.14,30.04,3,0,9,0.00
2013-9-15,69,57,48,55,49,44,92,76,47,30.08,29.96,3,0,12,0.11
2013-9-16,67,58,52,55,51,45,95,77,50,30.29,30.04,5,1,13,0.01
2013-9-17,68,55,42,51,46,40,92,72,45,30.33,30.15,3,0,14,0.00
2013-9-18,79,61,50,60,54,48,92,78,47,30.15,29.97,1,0,7,0.00
2013-9-19,83,70,61,67,63,58,93,79,57,29.98,29.85,3,0,12,0.00
2013-9-20,85,74,69,69,67,64,93,80,55,29.86,29.65,7,2,19,0.25
2013-9-21,72,64,56,67,55,45,94,75,43,29.80,29.61,5,1,18,0.49
2013-9-22,65,56,50,47,43,39,87,63,45,30.01,29.80,4,1,14,0.00
2013-9-23,64,54,45,47,45,42,88,73,49,30.12,30.01,2,0,11,0.00
2013-9-24,67,53,40,50,45,38,95,76,49,30.09,29.93,3,0,14,0.00
2013-9-25,72,58,47,57,51,44,94,81,55,29.93,29.86,5,1,12,0.00
2013-9-26,76,59,48,57,50,43,95,74,34,30.06,29.91,3,0,10,0.87
2013-9-27,75,60,49,60,53,47,95,79,53,30.16,30.06,4,1,16,0.00
2013-9-28,79,63,49,61,54,47,95,76,43,30.13,29.95,3,0,12,0.00
2013-9-29,64,62,60,61,57,52,94,83,68,29.96,29.89,1,0,7,0.19
2013-9-30,73,62,56,58,56,53,95,82,56,29.96,29.86,3,0,13,0.00
2013-10-1,76,64,54,62,58,52,95,83,62,29.97,29.88,7,1,17,0.01
2013-10-2,85,70,63,62,58,52,90,70,35,30.00,29.90,2,0,7,0.00
2013-10-3,79,69,60,69,63,56,90,82,66,29.98,29.86,4,0,18,0.22
2013-10-4,77,70,68,69,66,64,89,85,76,29.96,29.89,3,0,12,0.03
2013-10-5,74,69,65,69,66,62,94,91,82,29.96,29.80,6,0,17,0.10
2013-10-6,73,66,55,67,63,52,93,89,74,29.79,29.57,7,1,18,0.48
2013-10-7,61,53,45,53,44,40,91,74,55,30.07,29.65,9,3,26,0.01
2013-10-8,71,53,40,50,44,38,95,75,38,30.24,30.08,2,0,11,0.00
2013-10-9,70,54,42,51,46,40,95,76,37,30.25,30.15,4,1,14,0.00
2013-10-10,72,54,41,51,45,39,95,75,35,30.17,30.06,3,0,10,0.00
2013-10-11,72,56,44,58,50,42,95,83,42,30.09,30.00,2,0,11,0.00
2013-10-12,77,62,50,60,54,48,95,78,37,30.04,29.97,2,0,8,0.01
2013-10-13,74,62,51,58,47,37,89,63,26,30.27,30.01,5,1,13,0.00
2013-10-14,66,53,43,50,44,40,92,74,45,30.34,30.20,3,0,11,0.00
2013-10-15,63,53,42,61,50,39,94,89,82,30.20,29.79,3,0,11,0.10
2013-10-16,63,59,51,61,51,44,94,76,51,29.86,29.76,7,3,20,0.00
2013-10-17,52,48,43,48,45,40,92,87,79,29.86,29.74,6,1,17,0.08
2013-10-18,64,52,41,46,42,38,92,72,43,29.88,29.79,7,2,22,0.01
2013-10-19,48,44,40,43,40,36,92,85,73,29.87,29.73,6,1,18,0.18
2013-10-20,63,50,41,43,38,35,82,66,39,29.88,29.81,6,2,18,0.00
2013-10-21,59,52,42,48,43,35,91,72,61,29.84,29.76,6,2,20,0.03
2013-10-22,51,42,33,35,31,27,81,66,46,29.91,29.82,8,2,21,0.00
2013-10-23,48,39,32,35,32,28,92,78,46,29.91,29.76,4,1,13,0.02
2013-10-24,48,38,33,34,31,28,89,75,51,30.15,29.90,5,2,17,0.00
2013-10-25,49,39,31,35,30,26,92,72,46,30.30,30.11,6,2,17,0.00
2013-10-26,51,44,39,38,30,26,75,59,53,30.11,29.77,9,4,24,0.00
2013-10-27,55,42,32,35,32,29,89,70,42,30.03,29.95,5,1,17,0.00
2013-10-28,56,42,31,42,34,28,92,76,58,30.32,30.00,4,1,13,0.00
2013-10-29,53,42,32,42,36,29,92,80,63,30.38,30.18,2,0,11,0.00
2013-10-30,66,48,34,54,42,32,95,81,52,30.18,29.89,2,0,10,0.00
2013-10-31,63,61,58,61,58,55,94,92,86,29.88,29.12,7,2,24,0.00
2013-11-1,60,51,47,58,44,39,93,78,69,29.62,29.12,14,5,29,0.00
2013-11-2,51,46,42,45,42,36,93,84,64,30.03,29.61,4,2,17,0.00
2013-11-3,48,39,30,35,33,27,92,79,57,30.38,30.03,3,0,11,0.00
2013-11-4,52,42,32,37,29,23,85,63,35,30.42,30.26,1,0,10,0.00
2013-11-5,56,50,41,48,43,35,85,77,68,30.32,30.13,4,0,11,0.00
2013-11-6,59,54,45,53,46,39,90,74,59,30.14,29.78,10,4,29,0.00
2013-11-7,47,42,37,41,32,26,86,67,48,30.11,29.92,7,3,26,0.00
2013-11-8,46,38,34,32,28,25,86,68,46,30.26,30.08,5,1,18,0.00
2013-11-9,58,49,37,40,35,30,75,58,49,30.16,29.78,10,4,29,0.00
2013-11-10,51,45,38,39,30,25,71,57,46,30.24,29.86,9,4,26,0.00
2013-11-11,48,39,29,39,32,22,90,76,57,30.26,29.98,8,3,19,0.00
2013-11-12,36,29,23,24,20,16,81,68,52,30.52,30.25,9,4,21,0.01
2013-11-13,39,30,21,22,18,14,85,64,37,30.52,30.18,9,4,24,0.00
2013-11-14,52,40,32,25,22,18,63,50,28,30.19,29.98,12,6,26,0.00
2013-11-15,51,44,38,31,27,23,67,51,41,30.04,29.97,7,3,19,0.00
2013-11-16,59,48,36,51,42,30,88,79,64,30.05,29.76,7,2,18,0.00
2013-11-17,67,60,50,59,54,40,90,80,63,29.76,29.24,18,7,45,0.00
2013-11-18,50,42,36,42,32,24,77,66,57,30.09,29.46,13,8,32,0.00
2013-11-19,46,37,29,24,23,21,77,59,39,30.36,30.08,5,2,16,0.00
2013-11-20,47,36,26,28,25,22,85,64,43,30.39,30.18,4,1,13,0.00
2013-11-21,46,44,40,44,38,27,94,82,59,30.24,30.12,5,1,14,0.00
2013-11-22,48,43,29,47,39,24,95,88,68,30.32,30.07,9,2,22,0.00
2013-11-23,32,27,19,25,17,6,87,67,42,30.50,30.25,12,5,26,0.00
2013-11-24,27,21,14,14,9,6,74,62,41,30.59,30.43,7,3,20,0.00
2013-11-25,32,26,20,20,14,12,74,62,47,30.43,30.08,10,6,26,0.00
2013-11-26,35,32,30,27,24,19,78,71,59,30.10,29.88,7,2,18,0.00
2013-11-27,32,27,20,25,15,10,77,60,47,30.17,29.86,11,5,22,0.00
2013-11-28,29,26,20,19,14,10,77,61,51,30.38,30.16,7,1,17,0.00
2013-11-29,38,30,23,21,18,15,76,62,43,30.61,30.36,2,0,11,0.00
2013-11-30,48,36,28,28,23,19,74,61,44,30.53,30.06,7,2,16,0.00
2013-12-1,49,39,31,34,29,25,80,68,55,30.07,29.92,5,1,12,0.00
2013-12-2,41,34,29,32,27,23,91,74,50,29.93,29.83,3,0,11,0.00
2013-12-3,42,38,30,37,33,26,90,84,77,29.86,29.77,2,0,10,0.00
2013-12-4,60,49,38,52,44,36,92,84,76,29.83,29.58,6,1,19,0.00
2013-12-5,61,45,32,54,37,22,83,72,62,30.11,29.57,10,6,27,0.00
2013-12-6,32,30,24,22,19,14,68,64,59,30.36,30.08,5,2,14,0.00
2013-12-7,31,23,16,15,11,8,71,60,42,30.58,30.35,6,2,17,0.00
2013-12-8,30,22,16,26,16,8,89,76,67,30.57,29.95,5,2,18,0.00
2013-12-9,30,27,21,28,21,10,92,78,66,30.11,29.86,11,5,27,0.00
2013-12-10,26,20,12,11,8,-1,71,60,42,30.20,29.95,13,6,30,0.00
2013-12-11,25,19,12,18,11,5,82,70,61,30.44,30.19,8,4,18,0.00
2013-12-12,18,13,7,7,3,-3,82,64,46,30.45,30.21,8,3,18,0.00
2013-12-13,35,24,17,23,13,6,81,64,55,30.23,30.14,6,2,16,0.00
2013-12-14,28,24,21,22,20,18,90,88,79,30.19,29.76,6,4,18,0.00
2013-12-15,25,20,15,21,15,8,87,80,73,30.03,29.77,10,5,27,0.00
2013-12-16,26,16,7,16,8,2,86,73,57,30.16,29.96,5,1,14,0.00
2013-12-17,25,22,17,21,18,13,87,84,78,29.99,29.88,8,4,19,0.00
2013-12-18,29,24,19,21,17,14,90,74,60,30.12,29.88,9,4,21,0.00
2013-12-19,44,36,28,34,28,16,87,72,60,29.94,29.83,6,2,16,0.00
2013-12-20,54,45,37,52,43,33,95,92,80,29.84,29.65,5,2,14,0.00
2013-12-21,55,40,34,53,38,32,95,93,90,29.78,29.56,7,2,20,0.00
2013-12-22,42,37,33,39,34,31,96,89,80,29.93,29.48,13,5,32,0.00
2013-12-23,36,31,22,31,24,12,86,74,63,30.29,29.91,9,5,20,0.00
2013-12-24,25,17,11,15,8,4,78,67,49,30.52,30.28,7,4,20,0.00
2013-12-25,26,21,14,22,14,9,84,77,64,30.49,30.10,5,2,14,0.00
2013-12-26,29,27,26,25,20,16,89,75,64,30.27,30.02,9,4,21,0.00
2013-12-27,42,36,28,31,27,21,78,71,63,30.28,30.07,7,3,16,0.00
2013-12-28,51,43,37,36,32,30,75,66,55,30.09,29.87,9,6,25,0.00
2013-12-29,46,38,28,32,29,20,86,69,60,29.93,29.64,9,4,24,0.00
2013-12-30,28,22,18,21,12,6,76,63,50,30.23,29.93,8,2,21,0.00
2013-12-31,22,18,15,14,10,7,83,71,60,30.31,30.06,11,5,25,0.00
2014-1-1,18,16,15,14,12,10,85,83,78,30.32,30.14,6,3,17,0.00
2014-1-2,17,13,5,14,9,-2,86,82,72,30.24,30.00,10,7,26,0.00